• Join FlightAware (Why Join?)
  • Login
  • US Flag 
09:34AM EDT


 

Airport Tracker/Info


-or-


 

Live Flight TrackerFlight Track Log ✈ CNS33 ✈ 05-May-2013 ✈ KLOU - KPTW

Flight Track Log - Related Links

Times and Time Zones

All times are in EDT time to prevent confusion due to time zone crossing. See the CNS33 flight status page for this flight to view local times or setup timezone preferences in your user account.

Time Position Orientation Groundspeed Altitude Reporting Facility
EDT Latitude Longitude Course Direction KTS MPH feet Rate Location/Type
10:07AM 38.2333 -85.6333 121° Southeast 90 104 2,300  Level Louisville TRACON
10:09AM 38.1942 -85.5500 121° Southeast 139 160 4,700 1,200 Climbing Indianapolis Center
10:10AM 38.1706 -85.4997 121° Southeast 138 159 6,200 1,260 Climbing Indianapolis Center
10:11AM 38.1500 -85.4561 121° Southeast 141 162 7,400 1,260 Climbing Indianapolis Center
10:12AM 38.1289 -85.4119 121° Southeast 145 167 8,900 1,320 Climbing Indianapolis Center
10:13AM 38.1086 -85.3708 122° Southeast 139 160 10,200 1,140 Climbing Indianapolis Center
10:15AM 38.0914 -85.3294 118° Southeast 133 153 11,300 840 Climbing Indianapolis Center
10:16AM 38.1242 -85.2789 50° Northeast 181 208 12,000 840 Climbing Indianapolis Center
10:17AM 38.1606 -85.2275 48° Northeast 194 223 13,100 960 Climbing Indianapolis Center
10:18AM 38.1983 -85.1703 50° Northeast 189 217 14,000 780 Climbing Indianapolis Center
10:19AM 38.2333 -85.1164 50° Northeast 195 224 14,800 900 Climbing Indianapolis Center
10:20AM 38.2689 -85.0633 50° Northeast 196 226 15,900 1,140 Climbing Indianapolis Center
10:21AM 38.2906 -85.0086 63° Northeast 153 176 17,200 960 Climbing Indianapolis Center
10:22AM 38.3053 -84.9558 70° East 154 177 18,000 720 Climbing Indianapolis Center
10:23AM 38.3194 -84.9003 72° East 164 189 18,800 720 Climbing Indianapolis Center
10:24AM 38.3328 -84.8472 72° East 160 184 19,600 600 Climbing Indianapolis Center
10:25AM 38.3467 -84.7917 72° East 163 188 20,100 600 Climbing Indianapolis Center
10:26AM 38.3633 -84.7258 72° East 166 191 20,900 660 Climbing Indianapolis Center
10:27AM 38.3789 -84.6667 71° East 173 199 21,500 480 Climbing Indianapolis Center
10:28AM 38.3939 -84.6075 72° East 175 201 22,000 720 Climbing Indianapolis Center
10:29AM 38.4083 -84.5533 71° East 166 191 23,100 720 Climbing Indianapolis Center
10:30AM 38.4197 -84.5033 74° East 150 173 23,600 480 Climbing Indianapolis Center
10:31AM 38.4356 -84.4425 72° East 154 177 24,200 480 Climbing Indianapolis Center
10:32AM 38.4492 -84.3872 73° East 161 185 24,700 360 Climbing Indianapolis Center
10:33AM 38.4636 -84.3308 72° East 167 192 25,000 120 Climbing Indianapolis Center
10:34AM 38.4797 -84.2625 73° East 192 221 25,000  Level Indianapolis Center
10:35AM 38.4992 -84.1883 71° East 217 250 25,000  Level Indianapolis Center
10:36AM 38.5194 -84.1086 72° East 230 265 25,000  Level Indianapolis Center
10:37AM 38.5425 -84.0164 72° East 234 269 25,000 -120 Level Indianapolis Center
10:38AM 38.5628 -83.9353 72° East 238 274 24,800 -600 Descending Indianapolis Center
10:39AM 38.5844 -83.8469 73° East 258 297 23,800 -960 Descending Indianapolis Center
10:40AM 38.6075 -83.7522 73° East 275 316 22,900 -780 Descending Indianapolis Center
10:41AM 38.6317 -83.6544 72° East 286 329 22,300 -540 Descending Indianapolis Center
10:42AM 38.6569 -83.5525 72° East 278 320 21,900 -480 Descending Indianapolis Center
10:43AM 38.6783 -83.4597 74° East 272 313 21,400 -720 Descending Indianapolis Center
10:44AM 38.7019 -83.3672 72° East 272 313 20,500 -1,020 Descending Indianapolis Center
10:46AM 38.7253 -83.2714 73° East 279 321 19,400 -780 Descending Indianapolis Center
10:47AM 38.7472 -83.1772 73° East 276 318 19,000 -240 Descending Indianapolis Center
10:48AM 38.7681 -83.0914 73° East 251 289 19,000  Level Indianapolis Center
10:49AM 38.7869 -83.0128 73° East 234 269 19,000  Level Indianapolis Center
10:50AM 38.8064 -82.9344 72° East 229 264 19,000  Level Indianapolis Center
10:51AM 38.8275 -82.8428 74° East 224 258 19,000  Level Indianapolis Center
10:52AM 38.8472 -82.7619 73° East 233 268 19,000  Level Indianapolis Center
10:53AM 38.8664 -82.6794 73° East 240 276 19,000  Level Indianapolis Center
10:54AM 38.8867 -82.5944 73° East 247 284 19,000  Level Indianapolis Center
10:55AM 38.9061 -82.5100 73° East 246 283 19,000  Level Indianapolis Center
10:56AM 38.9261 -82.4258 73° East 247 284 19,000  Level Indianapolis Center
10:57AM 38.9450 -82.3408 74° East 247 284 19,000  Level Indianapolis Center
10:58AM 38.9692 -82.2378 73° East 250 288 19,000  Level Indianapolis Center
10:59AM 38.9892 -82.1503 74° East 253 291 19,000  Level Indianapolis Center
11:00AM 39.0086 -82.0642 74° East 250 288 19,000  Level Indianapolis Center
11:01AM 39.0286 -81.9786 73° East 249 287 19,000  Level Indianapolis Center
11:02AM 39.0481 -81.8925 74° East 249 287 19,000  Level Indianapolis Center
11:03AM 39.0678 -81.8064 74° East 250 288 19,000  Level Indianapolis Center
11:04AM 39.0872 -81.7203 74° East 249 287 19,000  Level Indianapolis Center
11:05AM 39.1067 -81.6333 74° East 251 289 19,000  Level Indianapolis Center
11:06AM 39.1264 -81.5464 74° East 251 289 19,000  Level Indianapolis Center
11:07AM 39.1497 -81.4428 74° East 250 288 19,000  Level Indianapolis Center
11:08AM 39.1689 -81.3561 74° East 250 288 19,000  Level Indianapolis Center
11:09AM 39.1886 -81.2697 74° East 250 288 19,000  Level Indianapolis Center
11:10AM 39.2064 -81.1853 75° East 244 281 19,000  Level Indianapolis Center
11:11AM 39.2256 -81.1014 74° East 243 280 19,000  Level Indianapolis Center
11:12AM 39.2442 -81.0169 74° East 244 281 19,000  Level Indianapolis Center
11:13AM 39.2628 -80.9319 74° East 245 282 19,000  Level Indianapolis Center
11:14AM 39.2808 -80.8467 75° East 247 284 19,000  Level Indianapolis Center
11:15AM 39.3028 -80.7444 74° East 246 283 19,000  Level Indianapolis Center
11:16AM 39.3208 -80.6594 75° East 246 283 19,000  Level Indianapolis Center
11:17AM 39.3392 -80.5744 74° East 245 282 19,000  Level Indianapolis Center
11:19AM 39.3575 -80.4894 74° East 245 282 19,000  Level Indianapolis Center
11:19AM 39.3750 -80.4219 71° East 241 277 19,000  Level Cleveland Center
11:20AM 39.3936 -80.3414 73° East 241 277 19,000  Level Cleveland Center
11:21AM 39.4122 -80.2525 75° East 241 277 19,000  Level Cleveland Center
11:22AM 39.4306 -80.1692 74° East 241 277 19,000  Level Cleveland Center
11:23AM 39.4469 -80.0858 76° East 241 277 19,000  Level Cleveland Center
11:24AM 39.4633 -79.9997 76° East 241 277 19,000  Level Cleveland Center
11:25AM 39.4836 -79.9161 73° East 241 277 19,000  Level Cleveland Center
11:26AM 39.4997 -79.8297 76° East 241 277 19,000  Level Cleveland Center
11:27AM 39.5200 -79.7489 72° East 241 277 19,000  Level Cleveland Center
11:28AM 39.5422 -79.6625 72° East 241 277 19,000  Level Cleveland Center
11:29AM 39.5625 -79.5786 73° East 241 277 19,000  Level Cleveland Center
11:30AM 39.5825 -79.4950 73° East 241 277 19,000  Level Cleveland Center
11:31AM 39.6025 -79.4111 73° East 241 277 19,000  Level Cleveland Center
11:32AM 39.6225 -79.3272 73° East 241 277 19,000  Level Cleveland Center
11:33AM 39.6425 -79.2433 73° East 241 277 19,000  Level Cleveland Center
11:34AM 39.6600 -79.1567 75° East 241 277 19,000  Level Cleveland Center
11:35AM 39.6800 -79.0753 72° East 241 277 19,000  Level Cleveland Center
11:36AM 39.6994 -78.9911 73° East 241 277 19,000  Level Cleveland Center
11:37AM 39.7211 -78.8989 73° East 241 277 19,000  Level Cleveland Center
11:38AM 39.7408 -78.8147 73° East 241 277 19,000  Level Cleveland Center
11:39AM 39.7581 -78.7306 75° East 241 277 19,000  Level Cleveland Center
11:40AM 39.7775 -78.6436 74° East 241 277 19,000  Level Cleveland Center
11:41AM 39.7931 -78.5728 74° East 241 277 19,000 -360 Level Cleveland Center
11:42AM 39.8122 -78.4858 74° East 241 277 18,300 -660 Descending Cleveland Center
11:43AM 39.8333 -78.3933 73° East 251 289 17,700 -660 Descending Cleveland Center
11:44AM 39.8547 -78.3006 73° East 256 295 17,000 -420 Descending Cleveland Center
11:45AM 39.8794 -78.1969 73° East 265 305 16,900 -60 Descending Cleveland Center
11:46AM 39.8986 -78.1097 74° East 258 297 16,900  Level Cleveland Center
11:48AM 39.9350 -77.9458 74° East 244 281 17,000  Climbing New York Center
11:49AM 39.9442 -77.8628 82° East 237 273 17,000  Level New York Center
11:50AM 39.9533 -77.7769 82° East 237 273 17,000  Level New York Center
11:51AM 39.9625 -77.6939 82° East 237 273 17,000 -300 Level New York Center
11:52AM 39.9744 -77.5950 81° East 237 273 16,500 -600 Descending New York Center
11:53AM 39.9856 -77.5119 80° East 249 287 15,800 -780 Descending New York Center
11:54AM 39.9997 -77.4075 80° East 254 292 15,000 -780 Descending New York Center
11:55AM 40.0128 -77.3219 79° East 259 298 14,300 -780 Descending New York Center
11:56AM 40.0272 -77.2150 80° East 265 305 13,500 -780 Descending New York Center
11:57AM 40.0381 -77.1292 81° East 265 305 12,800 -840 Descending New York Center
11:58AM 40.0542 -77.0247 79° East 270 311 11,900 -840 Descending New York Center
11:59AM 40.0647 -76.9389 81° East 270 311 11,200 -480 Descending New York Center
12:00PM 40.0750 -76.8611 80° East 259 298 11,000 -660 Descending New York Center
12:01PM 40.0889 -76.7564 80° East 251 289 10,000 -900 Descending New York Center
12:02PM 40.1017 -76.6681 79° East 246 283 9,300 -780 Descending New York Center
12:03PM 40.1122 -76.5819 81° East 241 277 8,500 -780 Descending New York Center
12:04PM 40.1222 -76.5042 80° East 230 265 7,800 -780 Descending New York Center
12:05PM 40.1178 -76.4222 94° East 218 251 7,000 -840 Descending New York Center
12:06PM 40.1131 -76.3486 95° East 218 251 6,200 -840 Descending New York Center
12:07PM 40.1089 -76.2561 93° East 218 251 5,400 -660 Descending New York Center
12:08PM 40.1022 -76.1767 96° East 223 257 5,000 -240 Descending New York Center
12:09PM 40.0992 -76.1058 93° East 216 249 5,000  Level New York Center
12:10PM 40.0947 -76.0214 94° East 216 249 5,000  Level New York Center
12:11PM 40.0914 -75.9533 94° East 216 249 5,000  Level New York Center
12:12PM 40.1178 -75.8767 66° East 210 242 5,000 -360 Level New York Center
12:13PM 40.1517 -75.8139 55° Northeast 222 255 4,400 -600 Descending New York Center
12:14PM 40.1922 -75.7436 53° Northeast 227 261 3,800 300 Descending New York Center
12:15PM 40.2303 -75.6783 53° Northeast 227 261 5,000 540 Climbing New York Center
12:16PM 40.2706 -75.6131 51° Northeast 227 261 5,000  Level New York Center
12:17PM 40.3086 -75.5478 53° Northeast 227 261 5,000  Level New York Center
12:18PM 40.3400 -75.4953 52° Northeast 227 261 5,000  Level New York Center
12:20PM 40.2760 -75.5344 191° South  Level Estimated
12:27PM 40.2333 -75.5500 191° South  Level FlightAware Approximate
12:28PM 40.2396 -75.5567 191° South  Level Estimated
12:29PM 40.2396 -75.5567 191° South  Level Estimated
12:30PM 40.2396 -75.5567 191° South  Level Estimated
12:31PM 40.2396 -75.5567 191° South  Level Estimated
12:32PM 40.2396 -75.5567 191° South  Level Estimated
12:33PM 40.2396 -75.5567 191° South  Level Estimated